National Weather Service Raw Text Product

Displaying AFOS PIL: TAFOTM Received: 2018-03-08 23:39 UTC


797 
FTUS43 KDMX 082339
TAFOTM
TAF
KOTM 082339Z 0900/0924 31004KT P6SM FEW250
     FM091200 10007KT P6SM BKN080=